Flight Track Log - Related Links

Times and Time Zones

All times are in EDT time to prevent confusion due to time zone crossing. See the DAL1578 flight status page for this flight to view local times or setup timezone preferences in your user account.

Time Position Orientation Groundspeed Altitude Reporting Facility
EDT Latitude Longitude Course Direction KTS MPH feet Rate Location/Type
Mon 09:32:50 AM 33.9167 -118.4667 40° Northeast 214 246 2,400  Level Southern California TRACON
Mon 09:33:36 AM 33.8931 -118.5081 236° Southwest 252 290 3,900 2,833 Climbing Los Angeles Center
Mon 09:34:00 AM 33.7704 -118.6272 132° Southeast  Level FlightAware Approximate
Mon 09:34:38 AM 33.8239 -118.5547 209° Southwest 277 319 7,500  Level Los Angeles Center
Mon 09:35:00 AM 33.6864 -118.5205 134° Southeast  Level FlightAware Approximate
Mon 09:35:39 AM 33.7442 -118.5331 167° South 297 342 10,100  Level Los Angeles Center
Mon 09:36:00 AM 33.6524 -118.3811 116° Southeast  Level FlightAware Approximate
Mon 09:36:40 AM 33.6758 -118.4500 135° Southeast 326 375 12,900  Level Los Angeles Center
Mon 09:37:00 AM 33.6333 -118.2395 90° East  Level FlightAware Approximate
Mon 09:37:42 AM 33.6475 -118.3486 109° East 329 379 13,400  Level Los Angeles Center
Mon 09:38:00 AM 33.6862 -118.1305 40° Northeast  Level FlightAware Approximate
Mon 09:38:43 AM 33.6703 -118.2400 76° East 360 414 15,200  Level Los Angeles Center
Mon 09:39:44 AM 33.7331 -118.1369 54° Northeast 387 445 17,200 2,146 Climbing Los Angeles Center
Mon 09:40:46 AM 33.8217 -118.0172 48° Northeast 404 465 19,600 2,098 Climbing Los Angeles Center
Mon 09:41:47 AM 33.9133 -117.9367 36° Northeast 409 471 21,500 1,902 Climbing Los Angeles Center
Mon 09:42:49 AM 34.0078 -117.8514 37° Northeast 420 483 23,500 1,902 Climbing Los Angeles Center
Mon 09:43:50 AM 34.1025 -117.7600 39° Northeast 435 501 25,400 1,707 Climbing Los Angeles Center
Mon 09:44:52 AM 34.1861 -117.6472 48° Northeast 450 518 27,000 1,452 Climbing Los Angeles Center
Mon 09:45:54 AM 34.2714 -117.5308 48° Northeast 462 532 28,400 1,415 Climbing Los Angeles Center
Mon 09:46:55 AM 34.3594 -117.4108 48° Northeast 475 547 29,900 1,770 Climbing Los Angeles Center
Mon 09:47:56 AM 34.4539 -117.2789 49° Northeast 473 544 32,000 1,512 Climbing Los Angeles Center
Mon 09:48:58 AM 34.5397 -117.1606 49° Northeast 470 541 33,000 488 Climbing Los Angeles Center
Mon 09:49:59 AM 34.6261 -117.0436 48° Northeast 471 542 33,000  Level Los Angeles Center
Mon 09:51:01 AM 34.7114 -116.9236 49° Northeast 472 543 33,000 488 Level Los Angeles Center
Mon 09:52:02 AM 34.8144 -116.7808 49° Northeast 473 544 34,000 976 Climbing Los Angeles Center
Mon 09:53:04 AM 34.8981 -116.6633 49° Northeast 462 532 35,000 488 Climbing Los Angeles Center
Mon 09:54:05 AM 34.9833 -116.5483 48° Northeast 461 531 35,000  Level Los Angeles Center
Mon 09:55:07 AM 35.0719 -116.4372 46° Northeast 459 528 35,000  Level Los Angeles Center
Mon 09:56:09 AM 35.1614 -116.3250 46° Northeast 463 533 35,000  Level Los Angeles Center
Mon 09:57:10 AM 35.2536 -116.2114 45° Northeast 471 542 35,000  Level Los Angeles Center
Mon 09:58:12 AM 35.3411 -116.0997 46° Northeast 462 532 35,000  Level Los Angeles Center
Mon 09:59:13 AM 35.4472 -115.9653 46° Northeast 459 528 35,000  Level Los Angeles Center
Mon 10:00:15 AM 35.5306 -115.8619 45° Northeast 461 531 35,000  Level Los Angeles Center
Mon 10:01:17 AM 35.6186 -115.7511 46° Northeast 455 524 35,000  Level Los Angeles Center
Mon 10:02:18 AM 35.7247 -115.6153 46° Northeast 459 528 35,000  Level Los Angeles Center
Mon 10:03:20 AM 35.8119 -115.5058 45° Northeast 453 521 35,000  Level Los Angeles Center
Mon 10:04:22 AM 35.8983 -115.3925 47° Northeast 455 524 35,000  Level Los Angeles Center
Mon 10:05:23 AM 35.9867 -115.2800 46° Northeast 458 527 35,000  Level Los Angeles Center
Mon 10:06:25 AM 36.0728 -115.1661 47° Northeast 459 528 35,000  Level Los Angeles Center
Mon 10:07:26 AM 36.1611 -115.0539 46° Northeast 459 528 35,000  Level Los Angeles Center
Mon 10:08:28 AM 36.2667 -114.9192 46° Northeast 457 526 35,000  Level Los Angeles Center
Mon 10:09:30 AM 36.3556 -114.8064 46° Northeast 458 527 35,000  Level Los Angeles Center
Mon 10:10:31 AM 36.4431 -114.6928 46° Northeast 458 527 35,000  Level Los Angeles Center
Mon 10:11:33 AM 36.5317 -114.5778 46° Northeast 461 531 35,000  Level Los Angeles Center
Mon 10:12:35 AM 36.6317 -114.4822 37° Northeast 454 522 35,000  Level Los Angeles Center
Mon 10:13:36 AM 36.7144 -114.4139 33° Northeast 449 517 35,000 -49 Level Los Angeles Center
Mon 10:14:38 AM 36.8386 -114.3114 33° Northeast 446 513 34,900 -435 Descending Los Angeles Center
Mon 10:15:40 AM 36.9608 -114.2097 34° Northeast 440 506 34,100 -774 Descending Los Angeles Center
Mon 10:16:42 AM 37.0608 -114.1256 34° Northeast 434 499 33,300 -537 Descending Los Angeles Center
Mon 10:17:43 AM 37.1614 -114.0417 34° Northeast 436 502 33,000 -189 Descending Los Angeles Center
Mon 10:18:17 AM 37.2122 -114.0017 32° Northeast 435 501 33,000  Level Salt Lake Center
Mon 10:19:19 AM 37.3133 -113.9147 34° Northeast 438 504 33,000  Level Salt Lake Center
Mon 10:20:20 AM 37.4108 -113.8322 34° Northeast 425 489 33,000  Level Salt Lake Center
Mon 10:21:22 AM 37.4978 -113.7586 34° Northeast 382 440 33,000  Level Salt Lake Center
Mon 10:22:23 AM 37.6058 -113.6664 34° Northeast 388 447 33,000  Level Salt Lake Center
Mon 10:23:25 AM 37.6978 -113.5875 34° Northeast 394 453 33,000  Level Salt Lake Center
Mon 10:24:26 AM 37.7917 -113.5081 34° Northeast 401 461 33,000  Level Salt Lake Center
Mon 10:25:28 AM 37.8839 -113.4267 35° Northeast 401 461 33,000  Level Salt Lake Center
Mon 10:26:30 AM 37.9756 -113.3478 34° Northeast 399 459 33,000  Level Salt Lake Center
Mon 10:27:31 AM 38.0669 -113.2689 34° Northeast 396 456 33,000  Level Salt Lake Center
Mon 10:28:33 AM 38.1575 -113.1906 34° Northeast 393 452 33,000 -537 Level Salt Lake Center
Mon 10:29:34 AM 38.2467 -113.1100 35° Northeast 391 450 31,900 -976 Descending Salt Lake Center
Mon 10:30:36 AM 38.2936 -112.9811 65° Northeast 404 465 31,000 -435 Descending Salt Lake Center
Mon 10:31:38 AM 38.2603 -112.8008 103° East 436 502 31,000  Level Salt Lake Center
Mon 10:32:39 AM 38.2225 -112.6508 108° East 441 507 31,000  Level Salt Lake Center
Mon 10:33:41 AM 38.2247 -112.5033 89° East 422 486 31,000  Level Salt Lake Center
Mon 10:34:43 AM 38.2803 -112.3761 61° Northeast 413 475 31,000  Level Salt Lake Center
Mon 10:35:44 AM 38.3389 -112.2517 59° Northeast 410 472 31,000  Level Salt Lake Center
Mon 10:36:46 AM 38.4017 -112.1358 55° Northeast 401 461 31,000  Level Salt Lake Center
Mon 10:37:48 AM 38.5033 -112.1228 North 367 422 31,000  Level Salt Lake Center
Mon 10:38:49 AM 38.5981 -112.1689 339° North 362 417 31,000  Level Salt Lake Center
Mon 10:39:51 AM 38.7175 -112.1922 351° North 371 427 31,000  Level Salt Lake Center
Mon 10:40:53 AM 38.8222 -112.1853 North 374 430 31,000  Level Salt Lake Center
Mon 10:41:55 AM 38.9267 -112.1792 North 375 432 31,000  Level Salt Lake Center
Mon 10:42:56 AM 39.0311 -112.1731 North 377 434 31,000 -439 Level Salt Lake Center
Mon 10:43:58 AM 39.1353 -112.1667 North 375 432 30,100 -1,403 Descending Salt Lake Center
Mon 10:45:00 AM 39.2447 -112.1622 North 373 429 28,100 -1,839 Descending Salt Lake Center
Mon 10:46:02 AM 39.3464 -112.1553 North 367 422 26,300 -1,742 Descending Salt Lake Center
Mon 10:47:04 AM 39.4469 -112.1500 North 364 419 24,500 -1,902 Descending Salt Lake Center
Mon 10:48:05 AM 39.5644 -112.1417 North 355 409 22,400 -1,854 Descending Salt Lake Center
Mon 10:49:07 AM 39.6586 -112.1367 North 345 397 20,700 -1,645 Descending Salt Lake Center
Mon 10:50:09 AM 39.7525 -112.1319 North 339 390 19,000 -1,597 Descending Salt Lake Center
Mon 10:51:11 AM 39.8425 -112.1275 North 329 379 17,400 -1,630 Descending Salt Lake Center
Mon 10:51:30 AM 39.8708 -112.1367 346° North 316 364 16,800 -1,452 Descending Salt Lake Center
Mon 10:52:13 AM 39.9239 -112.1222 12° North 294 338 15,900 -1,314 Descending Salt Lake Center
Mon 10:53:15 AM 40.0011 -112.1100 North 283 326 14,500 -1,488 Descending Salt Lake Center
Mon 10:54:14 AM 40.0850 -112.0875 12° North 282 325 12,900 -1,300 Descending Salt Lake Center
Mon 10:55:15 AM 40.1517 -112.0653 14° North 247 284 11,900 -850 Descending Salt Lake Center
Mon 10:56:21 AM 40.2136 -112.0333 21° North 210 242 11,100 -934 Descending Salt Lake Center
Mon 10:57:17 AM 40.2639 -112.0219 10° North 203 234 10,000 -569 Descending Salt Lake Center
Mon 10:58:17 AM 40.3158 -112.0017 17° North 187 215 10,000  Level Salt Lake Center
Mon 10:59:18 AM 40.3611 -111.9694 28° Northeast 180 207 10,000 -295 Level Salt Lake Center
Mon 11:00:19 AM 40.4106 -111.9583 10° North 179 206 9,400 -492 Descending Salt Lake Center
Mon 11:01:20 AM 40.4586 -111.9617 357° North 175 201 9,000 -198 Descending Salt Lake Center
Mon 11:02:20 AM 40.5072 -111.9678 355° North 176 203 9,000 -198 Level Salt Lake Center
Mon 11:03:21 AM 40.5578 -111.9733 355° North 179 206 8,600 -393 Descending Salt Lake Center

Login

Don't have an account? Register now (free) for customized features, flight alerts, and more!